createdAt,value
2023-02-03T00:01:36.035Z,101804.72
2023-02-03T00:04:02.698Z,101803.09
2023-02-03T00:06:30.930Z,101817.72
2023-02-03T00:08:59.554Z,101812.19
2023-02-03T00:11:26.783Z,101815.25
2023-02-03T00:13:53.450Z,101835.44
2023-02-03T00:16:20.193Z,101821.94
2023-02-03T00:18:46.845Z,101825.53
2023-02-03T00:21:15.180Z,101834.13
2023-02-03T00:23:42.522Z,101813.94
2023-02-03T00:26:11.071Z,101820.28
2023-02-03T00:28:38.016Z,101826.97
2023-02-03T00:31:04.980Z,101838.81
2023-02-03T00:33:33.745Z,101840.78
2023-02-03T00:36:06.170Z,101833.63
2023-02-03T00:38:32.847Z,101830.84
2023-02-03T00:40:59.496Z,101826.44
2023-02-03T00:43:26.527Z,101829.81
2023-02-03T00:45:53.167Z,101824.28
2023-02-03T00:48:20.703Z,101819.91
2023-02-03T00:50:47.759Z,101819.91
2023-02-03T00:53:14.867Z,101837.31
2023-02-03T00:55:43.816Z,101837.00
2023-02-03T00:58:10.935Z,101854.41
2023-02-03T01:00:37.807Z,101835.56
2023-02-03T01:03:04.845Z,101839.16
2023-02-03T01:05:31.574Z,101839.16
2023-02-03T01:07:58.259Z,101844.66
2023-02-03T01:10:25.369Z,101848.56
2023-02-03T01:12:52.211Z,101846.94
2023-02-03T01:15:18.950Z,101838.66
2023-02-03T01:17:45.674Z,101853.28
2023-02-03T01:20:13.944Z,101852.47
2023-02-03T01:22:40.752Z,101865.75
2023-02-03T01:25:08.156Z,101860.22
2023-02-03T01:27:34.893Z,101856.13
2023-02-03T01:30:01.583Z,101863.31
2023-02-03T01:32:28.355Z,101872.44
2023-02-03T01:34:55.062Z,101872.72
2023-02-03T01:37:21.749Z,101876.31
2023-02-03T01:39:48.433Z,101884.59
2023-02-03T01:42:16.116Z,101885.44
2023-02-03T01:44:46.006Z,101883.00
2023-02-03T01:47:31.245Z,101888.53
2023-02-03T01:50:03.759Z,101890.75
2023-02-03T01:52:32.463Z,101901.81
2023-02-03T01:55:02.982Z,101899.38
2023-02-03T01:57:48.612Z,101902.44
2023-02-03T02:00:15.637Z,101906.31
2023-02-03T02:02:46.035Z,101914.63
2023-02-03T02:05:35.249Z,101911.03
2023-02-03T02:08:04.274Z,101907.16
2023-02-03T02:10:31.853Z,101896.38
2023-02-03T02:13:00.601Z,101913.78
2023-02-03T02:15:40.297Z,101911.03
2023-02-03T02:18:25.183Z,101901.91
2023-02-03T02:21:07.095Z,101916.88
2023-02-03T02:23:53.321Z,101915.22
2023-02-03T02:26:52.420Z,101916.06
2023-02-03T02:29:43.328Z,101921.88
2023-02-03T02:32:24.844Z,101913.59
2023-02-03T02:35:14.404Z,101911.97
2023-02-03T02:38:07.571Z,101915.03
2023-02-03T02:40:41.853Z,101924.13
2023-02-03T02:43:23.206Z,101922.53
2023-02-03T02:45:51.177Z,101929.66
2023-02-03T02:48:36.822Z,101922.53
2023-02-03T02:51:07.770Z,101928.84
2023-02-03T02:53:38.223Z,101924.13
2023-02-03T02:56:09.766Z,101932.44
2023-02-03T02:58:41.311Z,101932.13
2023-02-03T03:01:11.813Z,101932.13
2023-02-03T03:03:42.815Z,101931.31
2023-02-03T03:06:15.521Z,101931.00
2023-02-03T03:08:45.751Z,101928.22
2023-02-03T03:11:12.793Z,101931.00
2023-02-03T03:13:45.549Z,101923.53
2023-02-03T03:16:14.847Z,101922.41
2023-02-03T03:18:49.275Z,101918.81
2023-02-03T03:21:26.965Z,101914.13
2023-02-03T03:23:57.682Z,101919.66
2023-02-03T03:26:35.763Z,101926.78
2023-02-03T03:29:05.347Z,101926.78
2023-02-03T03:31:32.278Z,101932.03
2023-02-03T03:33:59.291Z,101929.25
2023-02-03T03:36:30.578Z,101924.56
2023-02-03T03:39:15.334Z,101936.41
2023-02-03T03:41:50.926Z,101922.91
2023-02-03T03:44:19.397Z,101929.25
2023-02-03T03:47:02.420Z,101923.41
2023-02-03T03:49:29.670Z,101923.41
2023-02-03T03:52:04.305Z,101928.94
2023-02-03T03:54:32.782Z,101940.81
2023-02-03T03:57:09.898Z,101940.81
2023-02-03T03:59:40.849Z,101924.25
2023-02-03T04:02:07.738Z,101931.41
2023-02-03T04:04:37.560Z,101933.34
2023-02-03T04:07:04.644Z,101927.81
2023-02-03T04:09:31.721Z,101937.22
2023-02-03T04:12:05.976Z,101938.88
2023-02-03T04:14:35.522Z,101928.94
2023-02-03T04:17:02.196Z,101937.22
2023-02-03T04:19:28.892Z,101927.00
2023-02-03T04:21:55.743Z,101925.34
2023-02-03T04:24:22.475Z,101921.47
2023-02-03T04:26:49.162Z,101921.47
2023-02-03T04:29:15.807Z,101910.41
2023-02-03T04:31:42.481Z,101908.78
2023-02-03T04:34:09.174Z,101921.47
2023-02-03T04:36:35.850Z,101907.97
2023-02-03T04:39:02.535Z,101911.53
2023-02-03T04:41:29.210Z,101911.53
2023-02-03T04:43:55.854Z,101916.28
2023-02-03T04:46:22.568Z,101917.38
2023-02-03T04:48:49.258Z,101922.91
2023-02-03T04:51:16.050Z,101919.03
2023-02-03T04:53:42.679Z,101907.97
2023-02-03T04:56:09.333Z,101905.22
2023-02-03T04:58:37.178Z,101901.31
2023-02-03T05:01:10.329Z,101897.72
2023-02-03T05:03:37.685Z,101902.44
2023-02-03T05:06:06.049Z,101900.47
2023-02-03T05:08:33.739Z,101914.63
2023-02-03T05:11:02.126Z,101901.63
2023-02-03T05:13:29.461Z,101914.63
2023-02-03T05:15:56.178Z,101899.97
2023-02-03T05:18:22.896Z,101918.22
2023-02-03T05:20:49.556Z,101919.03
2023-02-03T05:23:17.271Z,101918.22
2023-02-03T05:25:45.451Z,101920.16
2023-02-03T05:28:12.259Z,101924.56
2023-02-03T05:30:38.991Z,101919.03
2023-02-03T05:33:05.686Z,101924.56
2023-02-03T05:35:32.391Z,101941.94
2023-02-03T05:37:59.623Z,101945.84
2023-02-03T05:40:45.136Z,101946.66
2023-02-03T05:43:12.520Z,101947.78
2023-02-03T05:45:39.307Z,101956.06
2023-02-03T05:48:07.446Z,101958.84
2023-02-03T05:50:38.597Z,101961.91
2023-02-03T05:53:06.991Z,101973.28
2023-02-03T05:55:34.210Z,101974.38
2023-02-03T05:58:01.264Z,101975.53
2023-02-03T06:00:28.809Z,101981.06
2023-02-03T06:02:58.191Z,101990.47
2023-02-03T06:05:26.458Z,101983.31
2023-02-03T06:07:53.131Z,101984.44
2023-02-03T06:10:20.240Z,101987.19
2023-02-03T06:12:47.632Z,101994.97
2023-02-03T06:15:14.625Z,101988.31
2023-02-03T06:17:48.243Z,101997.75
2023-02-03T06:20:16.845Z,102012.66
2023-02-03T06:22:43.984Z,102016.25
2023-02-03T06:25:13.033Z,102015.44
2023-02-03T06:27:45.729Z,102019.03
2023-02-03T06:30:12.849Z,102020.97
2023-02-03T06:32:39.531Z,102020.97
2023-02-03T06:35:06.444Z,102019.84
2023-02-03T06:37:33.150Z,102026.50
2023-02-03T06:39:59.836Z,102028.13
2023-02-03T06:42:26.448Z,102040.81
2023-02-03T06:44:53.665Z,102031.72
2023-02-03T06:47:20.363Z,102055.78
2023-02-03T06:49:47.786Z,102059.66
2023-02-03T06:52:15.638Z,102059.66
2023-02-03T06:54:42.227Z,102059.66
2023-02-03T06:57:09.220Z,102070.72
2023-02-03T06:59:35.832Z,102071.03
2023-02-03T07:02:02.515Z,102074.06
2023-02-03T07:04:30.243Z,102072.97
2023-02-03T07:06:57.813Z,102072.13
2023-02-03T07:09:24.653Z,102064.16
2023-02-03T07:11:51.226Z,102061.69
2023-02-03T07:14:17.955Z,102048.19
2023-02-03T07:16:44.593Z,102052.88
2023-02-03T07:19:11.290Z,102061.50
2023-02-03T07:21:37.913Z,102049.63
2023-02-03T07:24:04.881Z,102042.75
2023-02-03T07:26:31.539Z,102048.88
2023-02-03T07:29:00.826Z,102046.72
2023-02-03T07:31:28.148Z,102041.50
2023-02-03T07:33:54.882Z,102042.41
2023-02-03T07:36:21.580Z,102049.34
2023-02-03T07:38:48.189Z,102053.88
2023-02-03T07:41:17.642Z,102057.50
2023-02-03T07:43:44.669Z,102068.56
2023-02-03T07:46:11.568Z,102079.09
2023-02-03T07:48:38.357Z,102085.44
2023-02-03T07:51:05.488Z,102089.03
2023-02-03T07:53:32.522Z,102096.81
2023-02-03T07:56:03.637Z,102094.31
2023-02-03T07:58:31.289Z,102098.22
2023-02-03T08:00:59.134Z,102112.31
2023-02-03T08:03:25.808Z,102113.44
2023-02-03T08:05:53.560Z,102110.97
2023-02-03T08:08:20.253Z,102110.47
2023-02-03T08:10:46.999Z,102114.84
2023-02-03T08:13:13.811Z,102131.13
2023-02-03T08:15:40.476Z,102145.78
2023-02-03T08:18:09.252Z,102139.94
2023-02-03T08:20:35.938Z,102148.72
2023-02-03T08:23:02.595Z,102159.19
2023-02-03T08:25:29.272Z,102155.00
2023-02-03T08:27:55.937Z,102164.34
2023-02-03T08:30:23.542Z,102172.03
2023-02-03T08:32:55.519Z,102182.78
2023-02-03T08:35:25.700Z,102174.19
2023-02-03T08:37:52.423Z,102182.19
2023-02-03T08:40:19.158Z,102183.81
2023-02-03T08:42:45.838Z,102185.97
2023-02-03T08:45:12.522Z,102182.09
2023-02-03T08:47:39.442Z,102189.28
2023-02-03T08:50:08.133Z,102180.69
2023-02-03T08:52:35.089Z,102183.66
2023-02-03T08:55:01.799Z,102183.06
2023-02-03T08:57:32.377Z,102176.41
2023-02-03T08:59:59.036Z,102182.25
2023-02-03T09:02:25.828Z,102185.00
2023-02-03T09:04:52.844Z,102187.47
2023-02-03T09:07:19.672Z,102191.56
2023-02-03T09:09:46.358Z,102206.72
2023-02-03T09:12:13.436Z,102217.16
2023-02-03T09:14:40.305Z,102224.28
2023-02-03T09:17:10.160Z,102221.41
2023-02-03T09:19:37.020Z,102209.75
2023-02-03T09:22:04.360Z,102211.94
2023-02-03T09:24:31.193Z,102217.97
2023-02-03T09:26:57.850Z,102235.06
2023-02-03T09:29:24.526Z,102233.97
2023-02-03T09:31:53.047Z,102245.22
2023-02-03T09:34:21.171Z,102248.53
2023-02-03T09:36:47.951Z,102244.63
2023-02-03T09:39:15.833Z,102247.09
2023-02-03T09:42:12.585Z,102257.56
2023-02-03T09:45:01.096Z,102238.72
2023-02-03T09:47:32.631Z,102254.69
2023-02-03T09:50:02.766Z,102245.25
2023-02-03T09:52:33.481Z,102254.06
2023-02-03T09:55:27.052Z,102258.50
2023-02-03T09:58:13.952Z,102258.50
2023-02-03T10:00:42.834Z,102253.47
2023-02-03T10:03:21.783Z,102265.06
2023-02-03T10:06:28.149Z,102272.22
2023-02-03T10:09:16.531Z,102266.41
2023-02-03T10:11:43.091Z,102272.97
2023-02-03T10:14:31.139Z,102265.91
2023-02-03T10:17:16.565Z,102267.25
2023-02-03T10:19:55.220Z,102264.38
2023-02-03T10:22:28.495Z,102267.88
2023-02-03T10:25:15.987Z,102272.22
2023-02-03T10:27:44.055Z,102271.59
2023-02-03T10:30:19.943Z,102267.13
2023-02-03T10:32:51.069Z,102274.72
2023-02-03T10:35:17.712Z,102272.69
2023-02-03T10:37:48.978Z,102277.81
2023-02-03T10:40:17.085Z,102271.03
2023-02-03T10:43:06.456Z,102275.69
2023-02-03T10:45:37.596Z,102272.09
2023-02-03T10:48:07.253Z,102281.00
2023-02-03T10:50:35.478Z,102277.22
2023-02-03T10:53:32.722Z,102286.63
2023-02-03T10:56:05.447Z,102285.81
2023-02-03T10:58:34.248Z,102294.34
2023-02-03T11:01:24.072Z,102300.38
2023-02-03T11:04:04.090Z,102295.66
2023-02-03T11:06:33.063Z,102289.53
2023-02-03T11:09:00.805Z,102301.94
2023-02-03T11:11:32.599Z,102297.50
2023-02-03T11:14:05.059Z,102290.84
2023-02-03T11:16:34.985Z,102297.72
2023-02-03T11:19:10.228Z,102298.56
2023-02-03T11:21:39.617Z,102284.09
2023-02-03T11:24:13.577Z,102290.16
2023-02-03T11:26:43.727Z,102289.81
2023-02-03T11:29:25.421Z,102286.75
2023-02-03T11:31:54.362Z,102288.38
2023-02-03T11:34:34.512Z,102298.34
2023-02-03T11:37:27.010Z,102300.78
2023-02-03T11:39:57.708Z,102297.19
2023-02-03T11:42:25.297Z,102293.31
2023-02-03T11:44:53.330Z,102292.19
2023-02-03T11:47:22.757Z,102311.25
2023-02-03T11:50:09.860Z,102312.91
2023-02-03T11:53:00.314Z,102303.69
2023-02-03T11:55:54.712Z,102302.44
2023-02-03T11:58:44.524Z,102307.38
2023-02-03T12:01:38.707Z,102304.06
2023-02-03T12:04:05.480Z,102307.16
2023-02-03T12:06:47.370Z,102301.63
2023-02-03T12:09:20.890Z,102309.59
2023-02-03T12:12:22.860Z,102303.78
2023-02-03T12:15:15.484Z,102309.00
2023-02-03T12:17:48.244Z,102300.19
2023-02-03T12:20:20.165Z,102307.38
2023-02-03T12:23:17.385Z,102305.13
2023-02-03T12:26:02.342Z,102288.69
2023-02-03T12:28:57.084Z,102292.47
2023-02-03T12:31:47.063Z,102291.25
2023-02-03T12:34:23.279Z,102289.19
2023-02-03T12:36:59.573Z,102295.31
2023-02-03T12:39:44.860Z,102293.75
2023-02-03T12:42:39.813Z,102304.81
2023-02-03T12:45:19.414Z,102298.09
2023-02-03T12:47:50.724Z,102308.44
2023-02-03T12:50:21.789Z,102303.91
2023-02-03T12:53:15.677Z,102302.63
2023-02-03T12:55:46.473Z,102299.28
2023-02-03T12:58:25.123Z,102294.81
2023-02-03T13:00:58.610Z,102307.78
2023-02-03T13:03:37.457Z,102291.84
2023-02-03T13:06:19.291Z,102302.81
2023-02-03T13:08:58.249Z,102297.19
2023-02-03T13:11:40.829Z,102315.66
2023-02-03T13:14:15.612Z,102304.19
2023-02-03T13:16:45.589Z,102307.47
2023-02-03T13:19:21.318Z,102315.66
2023-02-03T13:21:52.744Z,102304.56
2023-02-03T13:24:24.854Z,102296.53
2023-02-03T13:27:09.643Z,102297.50
2023-02-03T13:30:12.192Z,102299.28
2023-02-03T13:32:39.285Z,102299.91
2023-02-03T13:35:24.829Z,102302.97
2023-02-03T13:38:16.257Z,102307.06
2023-02-03T13:40:58.351Z,102305.81
2023-02-03T13:43:39.461Z,102309.28
2023-02-03T13:46:18.656Z,102310.59
2023-02-03T13:48:47.013Z,102313.09
2023-02-03T13:53:48.763Z,102317.69
2023-02-03T13:56:20.845Z,102315.41
2023-02-03T13:59:03.686Z,102306.09
2023-02-03T14:01:35.848Z,102319.84
2023-02-03T14:04:07.028Z,102316.13
2023-02-03T14:06:39.723Z,102318.59
2023-02-03T14:09:24.734Z,102318.59
2023-02-03T14:11:52.732Z,102329.88
2023-02-03T14:14:21.866Z,102330.38
2023-02-03T14:16:52.674Z,102332.03
2023-02-03T14:19:30.380Z,102326.97
2023-02-03T14:22:09.151Z,102327.16
2023-02-03T14:24:40.583Z,102328.97
2023-02-03T14:27:19.740Z,102332.44
2023-02-03T14:29:56.327Z,102335.91
2023-02-03T14:32:23.006Z,102340.69
2023-02-03T14:34:50.702Z,102333.97
2023-02-03T14:37:26.888Z,102342.16
2023-02-03T14:39:56.340Z,102339.22
2023-02-03T14:42:56.079Z,102340.84
2023-02-03T14:45:43.826Z,102346.00
2023-02-03T14:48:23.490Z,102343.81
2023-02-03T14:50:59.417Z,102348.00
2023-02-03T14:53:34.117Z,102344.53
2023-02-03T14:57:01.687Z,102351.75
2023-02-03T14:59:44.271Z,102344.53
2023-02-03T15:02:11.047Z,102346.63
2023-02-03T15:04:39.703Z,102345.09
2023-02-03T15:07:07.752Z,102336.09
2023-02-03T15:09:47.295Z,102343.72
2023-02-03T15:12:26.190Z,102336.56
2023-02-03T15:15:22.540Z,102340.66
2023-02-03T15:17:51.735Z,102347.31
2023-02-03T15:20:43.711Z,102343.91
2023-02-03T15:23:25.756Z,102351.13
2023-02-03T15:25:57.315Z,102353.91
2023-02-03T15:28:26.118Z,102351.25
2023-02-03T15:31:03.223Z,102358.06
2023-02-03T15:33:31.970Z,102351.47
2023-02-03T15:36:07.458Z,102351.59
2023-02-03T15:38:41.691Z,102365.31
2023-02-03T15:41:22.350Z,102357.91
2023-02-03T15:43:51.947Z,102371.28
2023-02-03T15:46:49.581Z,102369.34
2023-02-03T15:49:27.272Z,102360.19
2023-02-03T15:52:09.448Z,102365.72
2023-02-03T15:54:43.249Z,102361.00
2023-02-03T15:57:27.795Z,102367.38
2023-02-03T15:59:58.979Z,102368.22
2023-02-03T16:02:30.709Z,102362.66
2023-02-03T16:05:05.910Z,102362.66
2023-02-03T16:07:32.600Z,102366.56
2023-02-03T16:10:00.063Z,102371.91
2023-02-03T16:12:31.889Z,102368.63
2023-02-03T16:15:00.277Z,102362.22
2023-02-03T16:17:31.530Z,102366.78
2023-02-03T16:20:13.493Z,102371.81
2023-02-03T16:22:42.657Z,102373.25
2023-02-03T16:25:22.793Z,102372.44
2023-02-03T16:28:35.769Z,102378.28
2023-02-03T16:31:39.982Z,102372.84
2023-02-03T16:34:38.067Z,102367.41
2023-02-03T16:37:48.888Z,102379.13
2023-02-03T16:40:41.220Z,102378.63
2023-02-03T16:43:31.982Z,102386.25
2023-02-03T16:46:18.514Z,102384.41
2023-02-03T16:49:04.002Z,102374.44
2023-02-03T16:51:41.984Z,102380.59
2023-02-03T16:54:13.852Z,102371.78
2023-02-03T16:56:41.059Z,102380.41
2023-02-03T16:59:07.741Z,102390.69
2023-02-03T17:01:34.426Z,102385.75
2023-02-03T17:04:01.132Z,102387.69
2023-02-03T17:06:28.049Z,102388.03
2023-02-03T17:08:56.626Z,102387.50
2023-02-03T17:11:24.437Z,102398.91
2023-02-03T17:13:52.108Z,102388.94
2023-02-03T17:16:21.304Z,102398.69
2023-02-03T17:18:47.989Z,102395.13
2023-02-03T17:21:18.638Z,102394.41
2023-02-03T17:23:45.346Z,102395.94
2023-02-03T17:26:12.447Z,102385.84
2023-02-03T17:28:43.250Z,102390.50
2023-02-03T17:31:16.093Z,102405.06
2023-02-03T17:33:43.177Z,102409.03
2023-02-03T17:36:13.763Z,102409.75
2023-02-03T17:55:15.137Z,102417.63
2023-02-03T17:57:41.779Z,102420.72
2023-02-03T18:00:10.077Z,102426.66
2023-02-03T18:02:36.768Z,102431.13
2023-02-03T18:05:03.467Z,102431.72
2023-02-03T18:07:30.041Z,102430.19
2023-02-03T18:09:56.611Z,102433.56
2023-02-03T18:12:23.336Z,102438.56
2023-02-03T18:14:50.029Z,102428.09
2023-02-03T18:17:16.843Z,102433.41
2023-02-03T18:19:46.694Z,102433.16
2023-02-03T18:22:15.795Z,102443.19
2023-02-03T18:24:44.948Z,102444.09
2023-02-03T18:27:16.826Z,102442.75
2023-02-03T18:29:47.812Z,102449.97
2023-02-03T18:32:15.778Z,102442.34
2023-02-03T18:34:42.529Z,102445.50
2023-02-03T18:37:09.428Z,102451.38
2023-02-03T18:39:36.230Z,102457.47
2023-02-03T18:42:03.665Z,102458.06
2023-02-03T18:44:31.678Z,102465.84
2023-02-03T18:47:06.576Z,102461.47
2023-02-03T18:49:35.772Z,102465.97
2023-02-03T18:52:03.355Z,102468.72
2023-02-03T18:54:30.847Z,102465.44
2023-02-03T18:57:02.979Z,102466.53
2023-02-03T18:59:29.808Z,102469.03
2023-02-03T19:01:56.548Z,102469.25
2023-02-03T19:04:23.293Z,102473.66
2023-02-03T19:06:51.421Z,102469.50
2023-02-03T19:09:19.364Z,102474.72
2023-02-03T19:11:46.240Z,102479.38
2023-02-03T19:14:14.264Z,102477.97
2023-02-03T19:16:41.013Z,102480.44
2023-02-03T19:19:07.856Z,102483.19
2023-02-03T19:21:34.526Z,102477.97
2023-02-03T19:24:01.435Z,102474.06
2023-02-03T19:26:28.280Z,102474.13
2023-02-03T19:28:55.944Z,102482.22
2023-02-03T19:31:25.810Z,102485.25
2023-02-03T19:33:52.478Z,102485.25
2023-02-03T19:36:19.286Z,102482.22
2023-02-03T19:38:46.016Z,102484.09
2023-02-03T19:41:12.811Z,102489.53
2023-02-03T19:43:40.197Z,102492.25
2023-02-03T19:46:08.246Z,102494.94
2023-02-03T19:48:35.376Z,102496.28
2023-02-03T19:51:02.018Z,102494.03
2023-02-03T19:53:28.730Z,102488.25
2023-02-03T19:55:55.353Z,102498.16
2023-02-03T19:58:23.536Z,102495.94
2023-02-03T20:00:50.486Z,102493.41
2023-02-03T20:03:18.204Z,102504.19
2023-02-03T20:05:44.875Z,102497.50
2023-02-03T20:08:14.976Z,102508.28
2023-02-03T20:10:44.471Z,102508.81
2023-02-03T20:13:14.567Z,102516.00
2023-02-03T20:15:42.089Z,102509.34
2023-02-03T20:18:08.882Z,102514.28
2023-02-03T20:20:35.601Z,102511.22
2023-02-03T20:23:02.303Z,102513.69
2023-02-03T20:25:29.234Z,102513.38
2023-02-03T20:27:57.491Z,102518.63
2023-02-03T20:30:24.129Z,102517.78
2023-02-03T20:32:50.828Z,102510.31
2023-02-03T20:35:17.576Z,102515.03
2023-02-03T20:37:44.211Z,102514.19
2023-02-03T20:40:17.354Z,102519.72
2023-02-03T20:42:44.255Z,102517.78
2023-02-03T20:45:14.283Z,102523.34
2023-02-03T20:47:41.416Z,102513.94
2023-02-03T20:50:18.333Z,102518.63
2023-02-03T20:52:45.930Z,102528.88
2023-02-03T20:55:15.410Z,102523.34
2023-02-03T20:57:42.020Z,102533.28
2023-02-03T21:00:20.615Z,102525.78
2023-02-03T21:03:05.989Z,102533.81
2023-02-03T21:05:36.835Z,102534.63
2023-02-03T21:08:31.134Z,102529.94
2023-02-03T21:10:58.072Z,102531.03
2023-02-03T21:13:34.507Z,102538.22
2023-02-03T21:16:09.620Z,102542.63
2023-02-03T21:18:44.409Z,102545.38
2023-02-03T21:21:34.873Z,102552.59
2023-02-03T21:24:02.338Z,102562.50
2023-02-03T21:26:30.822Z,102551.44
2023-02-03T21:29:00.132Z,102555.34
2023-02-03T21:31:32.152Z,102555.88
2023-02-03T21:34:01.414Z,102554.22
2023-02-03T21:36:38.823Z,102561.72
2023-02-03T21:39:38.340Z,102559.75
2023-02-03T21:42:41.239Z,102557.28
2023-02-03T21:45:24.997Z,102561.75
2023-02-03T21:47:52.937Z,102568.41
2023-02-03T21:50:37.183Z,102569.25
2023-02-03T21:53:10.133Z,102564.81
2023-02-03T21:55:38.206Z,102571.47
2023-02-03T21:58:30.434Z,102571.47
2023-02-03T22:00:59.818Z,102564.31
2023-02-03T22:03:40.787Z,102578.13
2023-02-03T22:06:16.367Z,102571.78
2023-02-03T22:08:45.998Z,102574.84
2023-02-03T22:11:13.675Z,102573.19
2023-02-03T22:13:40.551Z,102575.13
2023-02-03T22:16:07.567Z,102578.19
2023-02-03T22:18:34.613Z,102582.06
2023-02-03T22:21:03.274Z,102591.47
2023-02-03T22:23:30.228Z,102587.91
2023-02-03T22:25:56.905Z,102594.84
2023-02-03T22:28:23.687Z,102586.56
2023-02-03T22:30:50.492Z,102593.19
2023-02-03T22:33:17.220Z,102593.50
2023-02-03T22:35:44.249Z,102596.53
2023-02-03T22:38:10.953Z,102592.16
2023-02-03T22:40:37.653Z,102594.91
2023-02-03T22:43:04.414Z,102594.34
2023-02-03T22:45:31.121Z,102604.59
2023-02-03T22:48:00.273Z,102599.38
2023-02-03T22:50:35.868Z,102603.78
2023-02-03T22:53:04.316Z,102603.22
2023-02-03T22:55:31.723Z,102617.66
2023-02-03T22:57:59.319Z,102605.25
2023-02-03T23:00:26.676Z,102596.66
2023-02-03T23:02:53.946Z,102605.25
2023-02-03T23:05:21.324Z,102614.66
2023-02-03T23:07:49.694Z,102614.13
2023-02-03T23:10:23.971Z,102618.31
2023-02-03T23:12:51.267Z,102615.53
2023-02-03T23:15:18.538Z,102623.00
2023-02-03T23:17:45.380Z,102626.34
2023-02-03T23:20:13.610Z,102628.88
2023-02-03T23:22:40.226Z,102626.41
2023-02-03T23:25:07.272Z,102632.75
2023-02-03T23:27:33.930Z,102631.09
2023-02-03T23:30:00.611Z,102642.47
2023-02-03T23:32:27.706Z,102621.75
2023-02-03T23:35:12.855Z,102635.84
2023-02-03T23:37:39.546Z,102626.19
2023-02-03T23:40:07.283Z,102624.00
2023-02-03T23:42:33.917Z,102620.72
2023-02-03T23:45:00.523Z,102614.38
2023-02-03T23:47:27.090Z,102628.50
2023-02-03T23:49:53.731Z,102619.69
2023-02-03T23:52:20.697Z,102629.06
2023-02-03T23:54:47.289Z,102629.06
2023-02-03T23:57:13.946Z,102625.78
2023-02-03T23:59:40.583Z,102629.63
